createdAt,value
2023-03-12T00:00:28.855Z,99902.09
2023-03-12T00:02:57.697Z,99907.50
2023-03-12T00:05:27.622Z,99900.69
2023-03-12T00:08:00.065Z,99892.66
2023-03-12T00:10:28.863Z,99896.69
2023-03-12T00:12:57.719Z,99882.00
2023-03-12T00:15:29.304Z,99876.28
2023-03-12T00:17:59.279Z,99880.59
2023-03-12T00:20:27.976Z,99875.78
2023-03-12T00:22:56.785Z,99879.63
2023-03-12T00:25:25.233Z,99890.75
2023-03-12T00:27:54.628Z,99890.28
2023-03-12T00:30:23.530Z,99888.56
2023-03-12T00:32:53.028Z,99865.13
2023-03-12T00:35:23.241Z,99874.13
2023-03-12T00:37:53.138Z,99870.66
2023-03-12T00:40:21.668Z,99849.47
2023-03-12T00:42:50.021Z,99854.50
2023-03-12T00:45:18.897Z,99856.41
2023-03-12T00:47:47.469Z,99835.25
2023-03-12T00:50:16.603Z,99831.81
2023-03-12T00:52:47.084Z,99886.81
2023-03-12T00:55:16.829Z,99856.16
2023-03-12T00:57:45.853Z,99849.72
2023-03-12T01:00:14.710Z,99860.34
2023-03-12T01:02:45.771Z,99852.25
2023-03-12T01:05:15.043Z,99857.50
2023-03-12T01:07:46.612Z,99846.88
2023-03-12T01:10:16.915Z,99851.19
2023-03-12T01:12:45.594Z,99872.59
2023-03-12T01:15:16.276Z,99881.56
2023-03-12T01:17:46.200Z,99874.16
2023-03-12T01:20:15.277Z,99881.44
2023-03-12T01:22:44.481Z,99878.69
2023-03-12T01:25:15.442Z,99887.81
2023-03-12T01:27:46.311Z,99888.75
2023-03-12T01:30:15.770Z,99897.72
2023-03-12T01:32:44.872Z,99893.66
2023-03-12T01:35:13.962Z,99909.31
2023-03-12T01:37:42.777Z,99909.31
2023-03-12T01:40:16.683Z,99915.50
2023-03-12T01:42:54.072Z,99909.31
2023-03-12T01:45:59.726Z,99907.38
2023-03-12T01:48:32.555Z,99910.16
2023-03-12T01:51:02.165Z,99913.75
2023-03-12T01:53:31.709Z,99928.66
2023-03-12T01:56:03.479Z,99934.53
2023-03-12T01:58:35.480Z,99927.09
2023-03-12T02:01:03.954Z,99933.91
2023-03-12T02:03:33.847Z,99928.66
2023-03-12T02:06:13.210Z,99934.66
2023-03-12T02:08:46.043Z,99922.94
2023-03-12T02:11:16.776Z,99918.13
2023-03-12T02:13:45.551Z,99929.88
2023-03-12T02:16:14.119Z,99954.97
2023-03-12T02:18:44.988Z,99932.84
2023-03-12T02:21:20.345Z,99927.81
2023-03-12T02:23:59.146Z,99937.16
2023-03-12T02:26:31.717Z,99947.31
2023-03-12T02:29:02.560Z,99954.84
2023-03-12T02:31:39.371Z,99965.50
2023-03-12T02:34:09.720Z,99952.34
2023-03-12T02:36:38.477Z,99936.78
2023-03-12T02:39:07.712Z,99941.81
2023-03-12T02:41:41.065Z,99948.75
2023-03-12T02:44:13.325Z,99936.81
2023-03-12T02:46:45.140Z,99948.88
2023-03-12T02:49:14.880Z,99964.19
2023-03-12T02:51:47.119Z,99965.50
2023-03-12T02:54:17.708Z,99950.53
2023-03-12T02:56:50.839Z,99955.19
2023-03-12T02:59:22.045Z,99942.88
2023-03-12T03:01:54.715Z,99939.69
2023-03-12T03:04:24.028Z,99930.81
2023-03-12T03:06:54.665Z,99935.13
2023-03-12T03:09:23.642Z,99932.72
2023-03-12T03:12:00.685Z,99953.53
2023-03-12T03:14:30.576Z,99942.31
2023-03-12T03:16:58.962Z,99935.59
2023-03-12T03:19:27.257Z,99936.66
2023-03-12T03:22:03.022Z,99942.28
2023-03-12T03:24:31.598Z,99951.34
2023-03-12T03:27:01.688Z,99967.59
2023-03-12T03:29:30.546Z,99982.75
2023-03-12T03:31:59.110Z,99980.34
2023-03-12T03:34:27.841Z,99971.75
2023-03-12T03:36:56.448Z,99974.25
2023-03-12T03:39:26.026Z,99979.53
2023-03-12T03:41:56.745Z,99979.31
2023-03-12T03:44:28.137Z,99966.63
2023-03-12T03:46:57.071Z,99967.00
2023-03-12T03:49:25.808Z,99978.47
2023-03-12T03:51:55.519Z,99985.53
2023-03-12T03:54:23.759Z,99987.31
2023-03-12T03:56:52.332Z,100008.06
2023-03-12T03:59:21.074Z,100006.97
2023-03-12T04:01:51.136Z,100005.44
2023-03-12T04:04:22.121Z,100001.97
2023-03-12T04:06:50.776Z,99994.94
2023-03-12T04:09:21.384Z,100011.31
2023-03-12T04:11:50.211Z,100001.84
2023-03-12T04:14:18.952Z,99997.69
2023-03-12T04:16:47.949Z,99995.16
2023-03-12T04:19:18.273Z,99998.41
2023-03-12T04:21:46.856Z,100006.16
2023-03-12T04:24:20.797Z,100006.91
2023-03-12T04:26:52.351Z,100010.84
2023-03-12T04:29:21.706Z,100008.47
2023-03-12T04:31:52.502Z,100015.03
2023-03-12T04:34:23.093Z,100001.28
2023-03-12T04:36:52.904Z,99982.63
2023-03-12T04:39:22.662Z,99982.63
2023-03-12T04:41:52.250Z,99976.19
2023-03-12T04:44:22.318Z,99967.38
2023-03-12T04:46:51.263Z,99967.38
2023-03-12T04:49:19.818Z,99974.53
2023-03-12T04:51:50.027Z,99981.94
2023-03-12T04:54:18.526Z,99974.25
2023-03-12T04:56:47.366Z,99982.41
2023-03-12T04:59:16.760Z,99983.72
2023-03-12T05:01:45.897Z,99980.47
2023-03-12T05:04:14.868Z,99976.06
2023-03-12T05:06:43.694Z,99976.53
2023-03-12T05:09:13.558Z,99988.84
2023-03-12T05:11:42.303Z,99977.72
2023-03-12T05:14:12.709Z,99972.69
2023-03-12T05:16:41.643Z,99969.22
2023-03-12T05:19:10.116Z,99982.97
2023-03-12T05:21:39.035Z,99975.44
2023-03-12T05:24:07.879Z,99981.44
2023-03-12T05:26:40.224Z,99997.00
2023-03-12T05:29:10.226Z,99996.53
2023-03-12T05:31:39.443Z,100003.22
2023-03-12T05:34:08.306Z,99991.97
2023-03-12T05:36:38.403Z,99987.53
2023-03-12T05:39:07.145Z,100001.19
2023-03-12T05:41:36.358Z,99995.69
2023-03-12T05:44:16.426Z,99979.44
2023-03-12T05:46:47.381Z,99971.69
2023-03-12T05:49:16.964Z,99980.13
2023-03-12T05:51:46.051Z,99973.22
2023-03-12T05:54:14.891Z,99977.84
2023-03-12T05:56:43.654Z,99975.69
2023-03-12T05:59:14.093Z,99959.69
2023-03-12T06:01:42.874Z,99964.72
2023-03-12T06:04:11.652Z,99961.25
2023-03-12T06:06:40.344Z,99966.84
2023-03-12T06:09:10.057Z,99962.78
2023-03-12T06:11:39.003Z,99952.28
2023-03-12T06:14:07.649Z,99968.25
2023-03-12T06:16:37.762Z,99972.09
2023-03-12T06:19:06.982Z,99978.19
2023-03-12T06:21:37.504Z,99997.91
2023-03-12T06:24:14.237Z,99993.69
2023-03-12T06:26:43.908Z,99989.03
2023-03-12T06:29:13.025Z,99991.75
2023-03-12T06:31:44.347Z,99987.34
2023-03-12T06:34:13.349Z,99989.97
2023-03-12T06:36:41.963Z,99976.84
2023-03-12T06:39:11.733Z,99989.75
2023-03-12T06:41:46.167Z,99993.22
2023-03-12T06:44:14.659Z,99998.59
2023-03-12T06:46:44.992Z,99993.56
2023-03-12T06:49:16.543Z,100001.34
2023-03-12T06:51:46.848Z,99997.84
2023-03-12T06:54:15.451Z,99980.31
2023-03-12T06:56:46.205Z,99993.34
2023-03-12T06:59:15.054Z,99990.59
2023-03-12T07:01:45.186Z,99987.97
2023-03-12T07:04:16.003Z,99990.25
2023-03-12T07:06:50.713Z,99982.69
2023-03-12T07:09:19.658Z,99975.06
2023-03-12T07:11:49.329Z,99976.88
2023-03-12T07:14:17.937Z,99974.38
2023-03-12T07:16:48.044Z,99974.38
2023-03-12T07:19:17.590Z,99971.84
2023-03-12T07:21:47.267Z,99963.63
2023-03-12T07:24:15.829Z,99969.84
2023-03-12T07:26:44.960Z,99967.34
2023-03-12T07:29:13.413Z,99971.41
2023-03-12T07:31:42.554Z,99966.50
2023-03-12T07:34:18.940Z,99965.69
2023-03-12T07:36:48.732Z,99966.41
2023-03-12T07:39:19.518Z,99969.75
2023-03-12T07:41:50.582Z,99964.28
2023-03-12T07:44:28.359Z,99969.31
2023-03-12T07:46:57.530Z,99952.34
2023-03-12T07:49:28.679Z,99973.50
2023-03-12T07:52:02.286Z,99970.88
2023-03-12T07:54:32.790Z,99963.09
2023-03-12T07:57:01.587Z,99976.84
2023-03-12T07:59:36.566Z,99967.28
2023-03-12T08:02:06.467Z,99961.06
2023-03-12T08:04:36.959Z,99961.66
2023-03-12T08:07:09.089Z,99960.47
2023-03-12T08:09:39.193Z,99959.38
2023-03-12T08:12:10.792Z,99948.88
2023-03-12T08:14:39.618Z,99945.88
2023-03-12T08:17:09.509Z,99953.91
2023-03-12T08:19:39.705Z,99954.38
2023-03-12T08:22:08.511Z,99948.41
2023-03-12T08:24:37.224Z,99968.25
2023-03-12T08:27:06.944Z,99958.91
2023-03-12T08:29:36.607Z,99965.47
2023-03-12T08:32:05.874Z,99964.78
2023-03-12T08:34:34.736Z,99956.88
2023-03-12T08:37:06.235Z,99966.31
2023-03-12T08:39:35.174Z,99966.31
2023-03-12T08:42:04.136Z,99960.00
2023-03-12T08:44:33.409Z,99960.81
2023-03-12T08:47:03.396Z,99948.25
2023-03-12T08:49:32.404Z,99931.72
2023-03-12T08:52:07.316Z,99926.94
2023-03-12T08:54:38.184Z,99913.91
2023-03-12T08:57:08.885Z,99912.09
2023-03-12T08:59:38.587Z,99896.91
2023-03-12T09:02:07.587Z,99880.66
2023-03-12T09:04:41.458Z,99876.28
2023-03-12T09:07:12.069Z,99867.41
2023-03-12T09:09:51.484Z,99859.56
2023-03-12T09:12:21.577Z,99844.44
2023-03-12T09:15:07.741Z,99847.81
2023-03-12T09:17:37.839Z,99838.34
2023-03-12T09:20:09.645Z,99834.38
2023-03-12T09:22:40.174Z,99842.72
2023-03-12T09:25:11.047Z,99845.25
2023-03-12T09:27:47.127Z,99838.09
2023-03-12T09:30:25.379Z,99832.53
2023-03-12T09:32:59.188Z,99827.69
2023-03-12T09:35:28.165Z,99828.56
2023-03-12T09:37:59.972Z,99833.84
2023-03-12T09:40:32.594Z,99817.72
2023-03-12T09:43:14.396Z,99809.69
2023-03-12T09:45:47.286Z,99812.84
2023-03-12T09:48:19.153Z,99804.94
2023-03-12T09:50:52.002Z,99803.56
2023-03-12T09:53:32.806Z,99795.81
2023-03-12T09:56:10.402Z,99778.78
2023-03-12T09:58:44.940Z,99778.09
2023-03-12T10:01:40.141Z,99754.91
2023-03-12T10:04:25.129Z,99735.63
2023-03-12T10:07:03.137Z,99725.34
2023-03-12T10:09:50.418Z,99722.69
2023-03-12T10:12:28.393Z,99716.97
2023-03-12T10:15:09.506Z,99716.78
2023-03-12T10:17:51.117Z,99714.03
2023-03-12T10:20:52.264Z,99702.69
2023-03-12T10:23:32.103Z,99702.63
2023-03-12T10:26:25.709Z,99694.16
2023-03-12T10:29:07.092Z,99700.22
2023-03-12T10:31:42.981Z,99694.56
2023-03-12T10:34:20.584Z,99691.13
2023-03-12T10:36:50.856Z,99696.78
2023-03-12T10:39:27.321Z,99686.09
2023-03-12T10:42:02.078Z,99691.28
2023-03-12T10:44:33.343Z,99685.38
2023-03-12T10:47:09.932Z,99675.91
2023-03-12T10:49:39.292Z,99677.00
2023-03-12T10:52:19.443Z,99672.34
2023-03-12T10:54:51.959Z,99681.84
2023-03-12T10:57:44.117Z,99669.84
2023-03-12T11:00:21.148Z,99677.16
2023-03-12T11:02:59.024Z,99677.31
2023-03-12T11:05:30.958Z,99695.38
2023-03-12T11:08:21.441Z,99673.13
2023-03-12T11:10:50.213Z,99662.28
2023-03-12T11:13:33.467Z,99654.03
2023-03-12T11:16:05.440Z,99665.56
2023-03-12T11:18:40.820Z,99661.16
2023-03-12T11:21:22.022Z,99661.56
2023-03-12T11:24:08.301Z,99650.22
2023-03-12T11:26:42.003Z,99649.13
2023-03-12T11:29:20.024Z,99638.19
2023-03-12T11:31:59.529Z,99647.94
2023-03-12T11:34:30.570Z,99629.25
2023-03-12T11:37:12.069Z,99623.72
2023-03-12T11:40:00.178Z,99616.28
2023-03-12T11:42:50.153Z,99607.06
2023-03-12T11:45:28.516Z,99624.19
2023-03-12T11:48:08.709Z,99608.97
2023-03-12T11:50:48.998Z,99624.03
2023-03-12T11:53:32.326Z,99600.06
2023-03-12T11:56:16.728Z,99623.47
2023-03-12T11:58:57.332Z,99613.63
2023-03-12T12:01:45.338Z,99598.00
2023-03-12T12:04:42.915Z,99620.13
2023-03-12T12:07:22.292Z,99608.41
2023-03-12T12:09:59.632Z,99609.34
2023-03-12T12:12:47.102Z,99612.06
2023-03-12T12:15:27.803Z,99612.81
2023-03-12T12:18:17.791Z,99604.22
2023-03-12T12:20:54.373Z,99586.78
2023-03-12T12:23:36.310Z,99580.66
2023-03-12T12:26:11.945Z,99579.06
2023-03-12T12:29:01.110Z,99574.31
2023-03-12T12:31:35.363Z,99568.88
2023-03-12T12:34:33.417Z,99563.53
2023-03-12T12:37:20.979Z,99558.16
2023-03-12T12:39:58.074Z,99544.97
2023-03-12T12:42:33.702Z,99541.72
2023-03-12T12:45:06.487Z,99520.38
2023-03-12T12:47:42.520Z,99521.31
2023-03-12T12:50:17.765Z,99512.69
2023-03-12T12:52:55.225Z,99516.78
2023-03-12T12:55:30.774Z,99502.06
2023-03-12T12:58:06.097Z,99497.34
2023-03-12T13:00:51.144Z,99511.03
2023-03-12T13:03:22.358Z,99494.41
2023-03-12T13:05:58.882Z,99485.66
2023-03-12T13:09:03.085Z,99481.50
2023-03-12T13:11:41.570Z,99482.34
2023-03-12T13:14:25.050Z,99474.97
2023-03-12T13:17:26.244Z,99459.88
2023-03-12T13:20:02.334Z,99448.47
2023-03-12T13:22:55.273Z,99439.56
2023-03-12T13:25:39.836Z,99439.56
2023-03-12T13:28:33.109Z,99475.44
2023-03-12T13:31:03.216Z,99425.59
2023-03-12T13:36:49.208Z,99438.31
2023-03-12T13:39:32.596Z,99409.16
2023-03-12T13:42:36.533Z,99420.81
2023-03-12T13:45:25.458Z,99423.94
2023-03-12T13:47:59.711Z,99403.06
2023-03-12T13:50:29.917Z,99407.38
2023-03-12T13:53:05.879Z,99418.16
2023-03-12T13:55:39.855Z,99408.41
2023-03-12T13:58:17.770Z,99403.09
2023-03-12T14:00:58.466Z,99397.72
2023-03-12T14:03:31.428Z,99394.09
2023-03-12T14:06:11.152Z,99384.84
2023-03-12T14:09:16.866Z,99372.44
2023-03-12T14:11:56.765Z,99375.94
2023-03-12T14:14:53.017Z,99358.59
2023-03-12T14:17:25.443Z,99349.00
2023-03-12T14:20:16.690Z,99357.59
2023-03-12T14:22:51.561Z,99336.41
2023-03-12T14:25:33.654Z,99329.63
2023-03-12T14:28:15.806Z,99321.03
2023-03-12T14:30:55.033Z,99320.84
2023-03-12T14:33:25.170Z,99318.38
2023-03-12T14:36:03.743Z,99305.28
2023-03-12T14:38:44.882Z,99306.59
2023-03-12T14:41:18.835Z,99305.47
2023-03-12T14:43:53.770Z,99307.91
2023-03-12T14:46:26.582Z,99314.69
2023-03-12T14:48:56.712Z,99292.53
2023-03-12T14:51:27.791Z,99288.75
2023-03-12T14:53:58.166Z,99297.34
2023-03-12T14:56:30.637Z,99290.03
2023-03-12T14:59:08.192Z,99297.28
2023-03-12T15:01:40.433Z,99278.72
2023-03-12T15:04:17.751Z,99269.94
2023-03-12T15:06:59.275Z,99273.50
2023-03-12T15:09:31.399Z,99252.34
2023-03-12T15:12:04.491Z,99254.16
2023-03-12T15:14:43.984Z,99248.88
2023-03-12T15:17:19.216Z,99244.06
2023-03-12T15:19:51.042Z,99253.31
2023-03-12T15:22:25.016Z,99231.03
2023-03-12T15:25:03.950Z,99213.66
2023-03-12T15:27:35.582Z,99217.44
2023-03-12T15:30:27.631Z,99232.16
2023-03-12T15:33:14.061Z,99204.56
2023-03-12T15:35:45.442Z,99205.69
2023-03-12T15:38:18.828Z,99194.63
2023-03-12T15:40:52.288Z,99170.19
2023-03-12T15:43:23.866Z,99172.69
2023-03-12T15:46:00.860Z,99173.00
2023-03-12T15:48:40.295Z,99170.97
2023-03-12T15:51:17.926Z,99179.09
2023-03-12T15:53:46.909Z,99164.88
2023-03-12T15:56:24.126Z,99171.31
2023-03-12T15:59:02.648Z,99156.41
2023-03-12T16:01:31.299Z,99147.31
2023-03-12T16:04:01.503Z,99131.44
2023-03-12T16:06:31.157Z,99130.63
2023-03-12T16:09:03.622Z,99126.81
2023-03-12T16:11:39.086Z,99118.22
2023-03-12T16:14:20.472Z,99118.22
2023-03-12T16:16:55.251Z,99117.09
2023-03-12T16:19:26.391Z,99099.72
2023-03-12T16:21:55.470Z,99092.25
2023-03-12T16:24:32.116Z,99099.88
2023-03-12T16:27:05.618Z,99094.59
2023-03-12T16:29:37.804Z,99075.75
2023-03-12T16:32:13.137Z,99067.81
2023-03-12T16:34:44.573Z,99069.63
2023-03-12T16:37:18.065Z,99063.84
2023-03-12T16:39:49.039Z,99052.75
2023-03-12T16:42:27.207Z,99048.13
2023-03-12T16:44:57.787Z,99045.50
2023-03-12T16:47:28.511Z,99040.03
2023-03-12T16:49:59.147Z,99036.88
2023-03-12T16:52:28.058Z,99013.09
2023-03-12T16:54:56.808Z,99002.53
2023-03-12T16:57:31.153Z,98997.94
2023-03-12T17:00:08.013Z,98991.97
2023-03-12T17:02:37.708Z,98980.72
2023-03-12T17:05:09.661Z,98971.81
2023-03-12T17:07:38.130Z,98972.81
2023-03-12T17:10:08.051Z,98961.22
2023-03-12T17:12:39.145Z,98951.63
2023-03-12T17:15:15.817Z,98940.41
2023-03-12T17:17:44.440Z,98936.44
2023-03-12T17:20:16.586Z,98936.13
2023-03-12T17:22:46.471Z,98915.78
2023-03-12T17:25:23.869Z,98909.69
2023-03-12T17:27:52.859Z,98897.78
2023-03-12T17:30:22.245Z,98895.00
2023-03-12T17:32:51.708Z,98901.59
2023-03-12T17:35:22.370Z,98885.56
2023-03-12T17:37:51.470Z,98884.41
2023-03-12T17:40:20.774Z,98876.00
2023-03-12T17:42:49.817Z,98862.78
2023-03-12T17:45:18.727Z,98853.22
2023-03-12T17:47:52.933Z,98839.50
2023-03-12T17:50:25.485Z,98838.53
2023-03-12T17:52:54.183Z,98829.28
2023-03-12T17:55:22.941Z,98825.97
2023-03-12T17:57:52.619Z,98820.19
2023-03-12T18:00:23.178Z,98811.78
2023-03-12T18:02:53.414Z,98801.53
2023-03-12T18:05:22.121Z,98796.25
2023-03-12T18:07:53.514Z,98794.94
2023-03-12T18:10:23.606Z,98792.47
2023-03-12T18:12:52.181Z,98788.81
2023-03-12T18:15:20.907Z,98785.03
2023-03-12T18:17:52.616Z,98779.56
2023-03-12T18:20:32.418Z,98774.28
2023-03-12T18:23:08.616Z,98777.59
2023-03-12T18:25:39.607Z,98771.63
2023-03-12T18:28:09.351Z,98773.63
2023-03-12T18:30:37.844Z,98774.44
2023-03-12T18:33:06.468Z,98763.06
2023-03-12T18:35:35.368Z,98749.06
2023-03-12T18:38:04.136Z,98744.59
2023-03-12T18:40:34.413Z,98730.56
2023-03-12T18:43:03.517Z,98722.66
2023-03-12T18:45:32.150Z,98709.59
2023-03-12T18:48:00.710Z,98697.91
2023-03-12T18:50:29.641Z,98690.81
2023-03-12T18:52:58.103Z,98684.91
2023-03-12T18:55:27.527Z,98686.53
2023-03-12T18:57:58.411Z,98683.91
2023-03-12T19:00:27.254Z,98676.31
2023-03-12T19:02:57.180Z,98667.72
2023-03-12T19:05:29.032Z,98658.31
2023-03-12T19:07:59.076Z,98649.06
2023-03-12T19:10:27.951Z,98643.78
2023-03-12T19:12:59.054Z,98637.88
2023-03-12T19:15:27.835Z,98613.31
2023-03-12T19:17:58.822Z,98604.38
2023-03-12T19:20:27.652Z,98591.69
2023-03-12T19:22:56.238Z,98593.69
2023-03-12T19:25:24.690Z,98601.75
2023-03-12T19:27:53.183Z,98605.38
2023-03-12T19:30:27.432Z,98604.75
2023-03-12T19:32:56.095Z,98606.38
2023-03-12T19:35:24.703Z,98600.44
2023-03-12T19:37:53.126Z,98581.66
2023-03-12T19:40:22.262Z,98556.91
2023-03-12T19:42:50.617Z,98546.22
2023-03-12T19:45:19.537Z,98543.06
2023-03-12T19:47:50.277Z,98530.72
2023-03-12T19:50:20.989Z,98528.88
2023-03-12T19:52:49.647Z,98506.16
2023-03-12T19:55:18.392Z,98499.06
2023-03-12T19:57:46.884Z,98490.97
2023-03-12T20:00:15.761Z,98489.81
2023-03-12T20:02:46.353Z,98482.53
2023-03-12T20:05:17.053Z,98483.69
2023-03-12T20:07:47.090Z,98478.09
2023-03-12T20:10:16.442Z,98469.63
2023-03-12T20:12:46.061Z,98471.88
2023-03-12T20:15:14.742Z,98469.09
2023-03-12T20:17:45.778Z,98465.75
2023-03-12T20:20:16.833Z,98463.72
2023-03-12T20:22:46.377Z,98458.59
2023-03-12T20:25:15.061Z,98441.25
2023-03-12T20:27:47.451Z,98425.41
2023-03-12T20:30:16.380Z,98417.97
2023-03-12T20:32:45.061Z,98417.97
2023-03-12T20:35:13.632Z,98418.09
2023-03-12T20:37:43.691Z,98412.66
2023-03-12T20:40:13.762Z,98414.91
2023-03-12T20:42:43.711Z,98400.72
2023-03-12T20:45:13.244Z,98389.31
2023-03-12T20:47:43.433Z,98385.34
2023-03-12T20:50:12.994Z,98372.13
2023-03-12T20:52:45.093Z,98361.75
2023-03-12T20:55:13.705Z,98359.75
2023-03-12T20:57:42.225Z,98354.94
2023-03-12T21:00:12.789Z,98354.59
2023-03-12T21:02:41.475Z,98348.78
2023-03-12T21:05:11.539Z,98345.59
2023-03-12T21:07:40.502Z,98354.53
2023-03-12T21:10:14.439Z,98342.03
2023-03-12T21:12:43.626Z,98334.59
2023-03-12T21:15:13.164Z,98325.50
2023-03-12T21:17:41.894Z,98311.34
2023-03-12T21:20:13.444Z,98300.91
2023-03-12T21:22:43.659Z,98286.47
2023-03-12T21:25:14.134Z,98289.50
2023-03-12T21:27:50.425Z,98289.84
2023-03-12T21:30:20.530Z,98269.72
2023-03-12T21:32:49.416Z,98260.16
2023-03-12T21:35:20.103Z,98263.44
2023-03-12T21:37:48.713Z,98271.34
2023-03-12T21:40:19.837Z,98266.72
2023-03-12T21:42:48.397Z,98260.34
2023-03-12T21:45:17.140Z,98248.56
2023-03-12T21:47:45.866Z,98223.50
2023-03-12T21:50:14.671Z,98221.31
2023-03-12T21:52:47.920Z,98212.38
2023-03-12T21:55:19.092Z,98217.66
2023-03-12T21:57:47.899Z,98219.50
2023-03-12T22:00:17.212Z,98210.38
2023-03-12T22:02:47.729Z,98192.03
2023-03-12T22:05:16.443Z,98187.16
2023-03-12T22:07:45.168Z,98159.06
2023-03-12T22:10:14.110Z,98145.03
2023-03-12T22:12:44.662Z,98146.84
2023-03-12T22:15:13.577Z,98143.84
2023-03-12T22:17:42.198Z,98138.47
2023-03-12T22:20:13.638Z,98131.38
2023-03-12T22:22:47.991Z,98139.47
2023-03-12T22:25:22.503Z,98152.94
2023-03-12T22:27:52.765Z,98142.38
2023-03-12T22:30:21.596Z,98142.63
2023-03-12T22:32:50.348Z,98135.34
2023-03-12T22:35:25.973Z,98120.94
2023-03-12T22:37:54.784Z,98109.94
2023-03-12T22:40:23.446Z,98103.19
2023-03-12T22:42:53.967Z,98114.97
2023-03-12T22:45:22.336Z,98114.75
2023-03-12T22:47:51.126Z,98093.81
2023-03-12T22:50:21.106Z,98085.25
2023-03-12T22:52:49.745Z,98076.56
2023-03-12T22:55:18.285Z,98067.19
2023-03-12T22:57:46.965Z,98056.63
2023-03-12T23:00:23.257Z,98045.84
2023-03-12T23:02:52.473Z,98040.94
2023-03-12T23:05:21.016Z,98036.72
2023-03-12T23:07:50.033Z,98025.16
2023-03-12T23:10:18.544Z,98032.88
2023-03-12T23:12:47.321Z,98039.25
2023-03-12T23:15:17.565Z,98017.53
2023-03-12T23:17:46.218Z,98007.53
2023-03-12T23:20:15.137Z,98002.59
2023-03-12T23:22:43.705Z,97996.09
2023-03-12T23:25:12.257Z,97971.31
2023-03-12T23:27:40.663Z,97962.59
2023-03-12T23:30:11.653Z,97967.44
2023-03-12T23:32:41.550Z,97956.63
2023-03-12T23:35:10.505Z,97964.34
2023-03-12T23:37:39.069Z,97954.94
2023-03-12T23:40:41.136Z,97953.53
2023-03-12T23:43:09.947Z,97938.28
2023-03-12T23:45:38.518Z,97930.69
2023-03-12T23:48:08.803Z,97932.88
2023-03-12T23:50:37.332Z,97920.50
2023-03-12T23:53:06.216Z,97927.78
2023-03-12T23:55:34.927Z,97911.16
2023-03-12T23:58:03.291Z,97917.28
